Time;durP1;ratioP1;P1;durP2;ratioP2;P2;SDS_P1;SDS_P2;PMS_P1;PMS_P2;Temp;Humidity;BMP_temperature;BMP_pressure;BME280_temperature;BME280_humidity;BME280_pressure;Samples;Min_cycle;Max_cycle;Signal;HPM_P1;HPM_P2
2022/05/10 00:01:37;;;;;;;8.37;7.60;;;20.30;82.40;;;;;;5015596;28;20192;-72
2022/05/10 00:04:05;;;;;;;9.40;7.80;;;20.30;82.50;;;;;;5013905;28;20212;-72
2022/05/10 00:07:00;;;;;;;10.50;9.50;;;20.30;82.90;;;;;;5014919;28;20546;-72
2022/05/10 00:09:30;;;;;;;9.03;8.00;;;20.20;83.80;;;;;;5018015;28;20542;-72
2022/05/10 00:11:57;;;;;;;9.93;8.30;;;20.30;84.30;;;;;;5015060;28;20447;-72
2022/05/10 00:14:24;;;;;;;10.30;8.93;;;20.30;84.70;;;;;;5014227;28;20452;-72
2022/05/10 00:16:51;;;;;;;8.77;7.97;;;20.10;86.50;;;;;;5012858;28;20453;-72
2022/05/10 00:19:17;;;;;;;11.20;8.50;;;20.20;86.40;;;;;;5015738;28;20451;-71
2022/05/10 00:21:44;;;;;;;8.27;7.57;;;20.30;85.90;;;;;;5010645;28;20498;-72
2022/05/10 00:24:10;;;;;;;9.67;8.20;;;20.30;85.80;;;;;;5010935;28;20475;-71
2022/05/10 00:26:36;;;;;;;8.43;7.67;;;20.30;85.70;;;;;;5015384;28;20449;-72
2022/05/10 00:29:02;;;;;;;9.17;8.33;;;20.30;86.20;;;;;;5012771;28;20445;-72
2022/05/10 00:31:28;;;;;;;10.43;9.53;;;20.30;86.00;;;;;;5010269;28;20938;-72
2022/05/10 00:33:54;;;;;;;9.43;8.13;;;20.20;86.10;;;;;;5008835;28;20256;-71
2022/05/10 00:36:23;;;;;;;9.57;8.60;;;20.20;86.40;;;;;;5012848;28;20446;-72
2022/05/10 00:38:49;;;;;;;9.30;8.50;;;20.10;86.30;;;;;;5013210;28;20442;-72
2022/05/10 00:41:27;;;;;;;9.20;8.33;;;20.10;87.10;;;;;;5014460;28;20439;-72
2022/05/10 00:44:12;;;;;;;9.17;8.27;;;20.00;87.00;;;;;;5009081;28;20479;-72
2022/05/10 00:46:43;;;;;;;8.90;8.10;;;20.00;87.80;;;;;;5010192;28;20479;-72
2022/05/10 00:49:29;;;;;;;9.13;8.23;;;19.90;88.20;;;;;;5007607;28;20473;-72
2022/05/10 00:52:04;;;;;;;8.93;8.13;;;19.90;88.30;;;;;;5007736;28;20542;-72
2022/05/10 00:54:50;;;;;;;9.47;8.57;;;19.90;88.60;;;;;;5028225;28;20474;-73
2022/05/10 00:57:30;;;;;;;8.90;8.10;;;19.80;88.90;;;;;;5012528;28;20474;-72
2022/05/10 01:00:02;;;;;;;8.80;7.90;;;19.70;90.00;;;;;;5010816;28;20467;-72
2022/05/10 01:02:46;;;;;;;8.83;7.93;;;19.60;90.50;;;;;;5012968;28;20903;-72
2022/05/10 01:05:46;;;;;;;11.10;9.03;;;19.60;91.00;;;;;;5011109;28;20839;-72
2022/05/10 01:08:29;;;;;;;9.33;8.43;;;19.40;91.40;;;;;;5013064;28;20442;-72
2022/05/10 01:11:19;;;;;;;9.20;8.37;;;19.50;91.40;;;;;;5012092;28;20786;-72
2022/05/10 01:14:00;;;;;;;8.77;8.07;;;19.50;91.40;;;;;;5027060;28;21025;-72
2022/05/10 01:16:26;;;;;;;9.67;8.77;;;19.60;91.50;;;;;;5013280;28;20448;-72
2022/05/10 01:18:53;;;;;;;10.90;9.80;;;19.30;91.80;;;;;;5013622;28;20443;-72
2022/05/10 01:21:44;;;;;;;12.03;8.90;;;19.30;92.40;;;;;;5010889;28;20214;-72
2022/05/10 01:24:47;;;;;;;10.03;9.00;;;19.30;92.50;;;;;;5010498;28;20495;-72
2022/05/10 01:27:42;;;;;;;9.30;8.40;;;19.30;93.00;;;;;;5009184;28;20522;-72
2022/05/10 01:30:16;;;;;;;9.90;9.00;;;19.30;93.90;;;;;;5009602;28;20438;-72
2022/05/10 01:35:41;;;;;;;10.83;9.07;;;19.30;94.40;;;;;;5013319;28;20476;-72
2022/05/10 01:38:29;;;;;;;9.37;8.57;;;19.30;94.50;;;;;;5024170;28;20480;-72
2022/05/10 01:41:02;;;;;;;9.73;8.93;;;19.20;94.70;;;;;;5012649;28;20444;-72
2022/05/10 01:43:54;;;;;;;8.93;8.23;;;19.20;95.10;;;;;;5009674;28;20483;-72
2022/05/10 01:46:25;;;;;;;9.53;8.70;;;19.10;95.60;;;;;;5025661;28;20466;-72
2022/05/10 01:48:54;;;;;;;12.27;8.90;;;19.10;95.60;;;;;;5009536;28;20444;-72
2022/05/10 01:51:33;;;;;;;9.37;8.40;;;19.10;95.70;;;;;;5009233;28;20492;-72
2022/05/10 01:53:59;;;;;;;10.07;9.10;;;19.10;96.00;;;;;;5011099;28;20504;-72
2022/05/10 01:56:28;;;;;;;9.47;8.13;;;19.10;96.10;;;;;;5005511;28;20815;-72
2022/05/10 01:58:54;;;;;;;8.90;8.20;;;19.00;96.10;;;;;;5009083;28;20438;-72
2022/05/10 02:01:41;;;;;;;9.57;8.77;;;19.00;96.60;;;;;;5006736;28;20450;-71
2022/05/10 02:04:20;;;;;;;10.13;8.47;;;19.00;96.50;;;;;;5010488;28;20471;-72
2022/05/10 02:07:18;;;;;;;9.80;8.90;;;18.90;96.70;;;;;;5009485;28;20489;-72
2022/05/10 02:10:09;;;;;;;10.33;9.37;;;18.90;96.90;;;;;;5008482;28;20453;-72
2022/05/10 02:12:48;;;;;;;9.80;8.73;;;18.80;97.50;;;;;;5010807;28;20431;-72
2022/05/10 02:15:24;;;;;;;10.20;9.30;;;18.80;98.00;;;;;;5009822;28;20443;-72
2022/05/10 02:18:06;;;;;;;9.83;8.93;;;18.80;97.90;;;;;;5012998;28;20438;-71
2022/05/10 02:21:03;;;;;;;10.53;9.43;;;18.70;98.20;;;;;;5014221;28;20522;-71
2022/05/10 02:23:35;;;;;;;9.70;8.73;;;18.70;98.20;;;;;;5009034;28;20463;-72
2022/05/10 02:26:12;;;;;;;9.17;8.27;;;18.70;99.10;;;;;;5011682;28;20467;-71
2022/05/10 02:28:42;;;;;;;11.07;10.07;;;18.70;99.30;;;;;;5013322;28;20438;-72
2022/05/10 02:31:18;;;;;;;9.63;8.83;;;18.60;99.60;;;;;;5011065;28;20459;-72
2022/05/10 02:33:46;;;;;;;9.67;8.80;;;18.70;99.70;;;;;;5009888;28;20459;-72
2022/05/10 02:36:11;;;;;;;11.07;9.73;;;18.70;99.90;;;;;;5009593;28;20426;-72
2022/05/10 02:38:39;;;;;;;10.50;9.50;;;18.60;99.90;;;;;;5015453;28;20431;-71
2022/05/10 02:41:25;;;;;;;10.93;9.83;;;18.50;99.90;;;;;;5008406;28;20913;-72
2022/05/10 02:43:58;;;;;;;10.67;9.60;;;18.40;99.90;;;;;;5011441;28;20458;-72
2022/05/10 02:46:24;;;;;;;11.60;10.40;;;18.30;99.90;;;;;;5025671;28;20448;-72
2022/05/10 02:48:50;;;;;;;10.67;9.67;;;18.30;99.90;;;;;;5025477;28;20527;-72
2022/05/10 02:51:17;;;;;;;11.73;10.57;;;18.30;99.90;;;;;;5025463;28;20431;-72
2022/05/10 02:53:44;;;;;;;12.00;10.80;;;18.10;99.90;;;;;;5013134;28;20971;-72
2022/05/10 02:56:13;;;;;;;11.70;10.70;;;17.80;99.90;;;;;;5010297;28;20526;-72
2022/05/10 02:58:44;;;;;;;11.23;10.13;;;17.70;99.90;;;;;;5008984;28;21036;-72
2022/05/10 03:01:35;;;;;;;12.47;11.13;;;17.70;99.90;;;;;;5008969;28;20442;-72
2022/05/10 03:04:03;;;;;;;13.17;11.77;;;17.50;99.90;;;;;;5006841;28;20490;-71
2022/05/10 03:06:29;;;;;;;14.00;10.80;;;17.20;99.90;;;;;;5012170;28;20432;-71
2022/05/10 03:08:57;;;;;;;11.77;10.70;;;17.20;99.90;;;;;;5008641;28;20437;-72
2022/05/10 03:11:23;;;;;;;10.20;9.30;;;17.20;99.90;;;;;;5006106;28;20471;-72
2022/05/10 03:13:49;;;;;;;11.70;10.50;;;17.20;99.90;;;;;;5012258;28;20540;-72
2022/05/10 03:16:16;;;;;;;11.10;10.00;;;17.30;99.90;;;;;;5025158;28;20497;-72
2022/05/10 03:18:42;;;;;;;11.00;9.90;;;17.20;99.90;;;;;;5008155;28;20436;-72
2022/05/10 03:21:08;;;;;;;10.50;9.60;;;17.20;99.90;;;;;;5009489;28;20954;-72
2022/05/10 03:23:35;;;;;;;10.57;9.63;;;17.20;99.90;;;;;;5011406;28;20462;-72
2022/05/10 03:26:01;;;;;;;11.73;9.87;;;17.30;99.90;;;;;;5013546;28;20232;-72
2022/05/10 03:28:27;;;;;;;10.90;8.70;;;17.30;99.90;;;;;;5010616;28;20430;-72
2022/05/10 03:30:54;;;;;;;10.00;9.10;;;17.10;99.90;;;;;;5012603;28;20451;-71
2022/05/10 03:33:20;;;;;;;9.83;9.03;;;17.10;99.90;;;;;;5010494;28;21519;-72
2022/05/10 03:35:46;;;;;;;10.30;9.23;;;17.10;99.90;;;;;;5013123;28;20475;-72
2022/05/10 03:38:11;;;;;;;9.80;9.00;;;17.20;99.90;;;;;;5014229;28;20463;-72
2022/05/10 03:40:38;;;;;;;10.60;9.70;;;17.20;99.90;;;;;;5013794;28;20239;-72
2022/05/10 03:43:07;;;;;;;11.10;10.00;;;17.20;99.90;;;;;;5029158;28;20208;-72
2022/05/10 03:45:33;;;;;;;11.40;10.20;;;17.20;99.90;;;;;;5012101;28;20553;-72
2022/05/10 03:47:59;;;;;;;10.30;9.30;;;17.30;99.90;;;;;;5016227;28;20530;-71
2022/05/10 03:50:25;;;;;;;11.33;10.13;;;17.30;99.90;;;;;;5011400;28;20238;-73
2022/05/10 03:52:54;;;;;;;10.67;9.57;;;17.40;99.90;;;;;;5012498;28;20222;-72
2022/05/10 03:55:23;;;;;;;12.10;10.87;;;17.50;99.90;;;;;;5014745;28;20471;-72
2022/05/10 03:57:50;;;;;;;10.97;9.93;;;17.50;99.90;;;;;;5010861;28;20442;-72
2022/05/10 04:00:20;;;;;;;10.23;9.33;;;17.50;99.90;;;;;;5013318;28;20603;-72
2022/05/10 04:02:45;;;;;;;10.10;9.20;;;17.40;99.90;;;;;;5013144;28;20446;-72
2022/05/10 04:05:13;;;;;;;11.80;10.53;;;17.40;99.90;;;;;;5015097;28;20970;-72
2022/05/10 04:07:39;;;;;;;10.13;9.20;;;17.50;99.90;;;;;;5014120;28;20185;-72
2022/05/10 04:10:06;;;;;;;11.13;10.00;;;17.60;99.90;;;;;;5027415;28;20432;-72
2022/05/10 04:12:32;;;;;;;11.50;10.50;;;17.60;99.90;;;;;;5014742;28;20523;-72
2022/05/10 04:14:58;;;;;;;11.47;10.37;;;17.50;99.90;;;;;;5012518;28;20846;-72
2022/05/10 04:17:23;;;;;;;10.47;9.47;;;17.50;99.90;;;;;;5012679;28;20439;-72
2022/05/10 04:19:49;;;;;;;9.97;9.03;;;17.60;99.90;;;;;;5016746;28;20267;-72
2022/05/10 04:22:16;;;;;;;11.97;10.67;;;17.50;99.90;;;;;;5026531;28;20205;-72
2022/05/10 04:24:41;;;;;;;12.23;10.30;;;17.70;99.90;;;;;;5014541;28;20235;-72
2022/05/10 04:27:07;;;;;;;13.20;10.20;;;17.60;99.90;;;;;;5012652;28;20540;-72
2022/05/10 04:29:33;;;;;;;11.03;10.13;;;17.60;99.90;;;;;;5013980;28;20188;-72
2022/05/10 04:31:58;;;;;;;11.47;10.37;;;17.50;99.90;;;;;;5013665;28;20183;-72
2022/05/10 04:34:24;;;;;;;12.70;10.33;;;17.40;99.90;;;;;;5015137;28;20230;-72
2022/05/10 04:36:49;;;;;;;11.57;10.43;;;17.30;99.90;;;;;;5010672;28;20181;-72
2022/05/10 04:39:15;;;;;;;12.50;11.03;;;17.30;99.90;;;;;;5009743;28;20655;-72
2022/05/10 04:41:45;;;;;;;11.63;10.43;;;17.30;99.90;;;;;;5008692;28;20184;-72
2022/05/10 04:44:11;;;;;;;12.67;11.30;;;17.20;99.90;;;;;;5009376;28;20213;-72
2022/05/10 04:46:41;;;;;;;11.73;10.63;;;17.20;99.90;;;;;;5013160;28;20454;-72
2022/05/10 04:49:09;;;;;;;13.20;11.03;;;17.40;99.90;;;;;;5010315;28;20427;-72
2022/05/10 04:51:36;;;;;;;12.00;10.80;;;17.50;99.90;;;;;;5011907;28;20431;-72
2022/05/10 04:54:02;;;;;;;12.17;10.97;;;17.50;99.90;;;;;;5012278;28;20455;-72
2022/05/10 04:56:28;;;;;;;11.47;10.37;;;17.50;99.90;;;;;;5015262;28;21024;-71
2022/05/10 04:58:57;;;;;;;12.90;10.67;;;17.50;99.90;;;;;;5030259;28;20449;-72
2022/05/10 05:01:27;;;;;;;11.20;10.20;;;17.50;99.90;;;;;;5011408;28;20351;-72
2022/05/10 05:03:55;;;;;;;11.83;10.57;;;17.50;99.90;;;;;;5028975;28;20455;-72
2022/05/10 05:06:21;;;;;;;12.20;11.20;;;17.70;99.90;;;;;;5007835;28;20517;-72
2022/05/10 05:08:47;;;;;;;11.73;10.53;;;17.60;99.90;;;;;;5010169;28;20439;-72
2022/05/10 05:11:12;;;;;;;11.23;10.23;;;17.70;99.90;;;;;;5006674;28;20423;-72
2022/05/10 05:13:38;;;;;;;13.23;10.60;;;17.70;99.90;;;;;;5012356;28;20861;-72
2022/05/10 05:16:05;;;;;;;14.20;11.50;;;17.70;99.90;;;;;;5008105;28;20684;-72
2022/05/10 05:18:30;;;;;;;12.40;11.07;;;17.50;99.90;;;;;;5023098;28;20189;-72
2022/05/10 05:20:56;;;;;;;12.70;11.50;;;17.50;99.90;;;;;;5008603;28;20469;-72
2022/05/10 05:23:22;;;;;;;14.00;11.77;;;17.70;99.90;;;;;;5011007;28;20206;-72
2022/05/10 05:25:49;;;;;;;14.60;11.13;;;17.80;99.90;;;;;;5013197;28;20209;-72
2022/05/10 05:28:15;;;;;;;12.03;10.93;;;17.90;99.90;;;;;;5012937;28;20431;-73
2022/05/10 05:30:43;;;;;;;12.17;10.90;;;18.00;99.90;;;;;;5008473;28;20431;-73
2022/05/10 05:33:09;;;;;;;13.53;12.20;;;18.10;99.90;;;;;;5012468;28;20287;-73
2022/05/10 05:35:34;;;;;;;11.57;10.43;;;18.10;99.90;;;;;;5010133;28;20637;-73
2022/05/10 05:38:01;;;;;;;13.93;12.30;;;18.00;99.90;;;;;;5013080;28;20440;-73
2022/05/10 05:40:26;;;;;;;13.50;11.20;;;18.00;99.90;;;;;;5012714;28;20185;-73
2022/05/10 05:42:53;;;;;;;16.00;12.10;;;18.00;99.90;;;;;;5009872;28;20447;-73
2022/05/10 05:45:22;;;;;;;13.83;12.50;;;17.90;99.90;;;;;;5008611;28;20207;-73
2022/05/10 05:47:48;;;;;;;13.30;12.10;;;18.20;99.90;;;;;;5013128;28;20435;-73
2022/05/10 05:50:15;;;;;;;12.03;10.87;;;18.30;99.90;;;;;;5011014;28;20489;-73
2022/05/10 05:52:41;;;;;;;12.37;11.27;;;18.40;99.90;;;;;;5014340;28;20612;-72
2022/05/10 05:55:09;;;;;;;12.17;10.87;;;18.40;99.90;;;;;;5014889;28;20436;-72
2022/05/10 05:57:35;;;;;;;12.23;11.03;;;18.40;99.90;;;;;;5012680;28;20515;-73
2022/05/10 06:00:03;;;;;;;12.47;10.57;;;18.30;99.90;;;;;;5005780;28;20455;-73
2022/05/10 06:02:29;;;;;;;11.50;10.50;;;18.40;99.90;;;;;;5012397;28;20445;-72
2022/05/10 06:04:54;;;;;;;11.70;10.60;;;18.30;99.90;;;;;;5011860;28;20458;-72
2022/05/10 06:07:20;;;;;;;14.23;12.83;;;18.30;99.90;;;;;;5009885;28;20207;-72
2022/05/10 06:09:47;;;;;;;13.40;12.10;;;18.30;99.90;;;;;;5010441;28;20582;-72
2022/05/10 06:12:16;;;;;;;12.67;11.43;;;18.30;99.90;;;;;;5011664;28;20474;-72
2022/05/10 06:14:42;;;;;;;13.47;11.43;;;18.60;99.90;;;;;;5009468;28;21238;-72
2022/05/10 06:17:10;;;;;;;16.07;14.33;;;18.70;99.90;;;;;;5012882;28;20514;-72
2022/05/10 06:19:37;;;;;;;12.90;11.20;;;18.70;99.90;;;;;;5010691;28;20438;-73
2022/05/10 06:22:05;;;;;;;13.30;11.90;;;18.60;99.90;;;;;;5014264;28;20435;-73
2022/05/10 06:24:30;;;;;;;11.60;10.47;;;18.80;99.90;;;;;;5009612;28;20467;-73
2022/05/10 06:26:56;;;;;;;12.37;11.07;;;18.70;99.90;;;;;;5013944;28;20430;-72
2022/05/10 06:29:22;;;;;;;12.80;11.50;;;18.60;99.90;;;;;;5011470;28;20276;-72
2022/05/10 06:31:48;;;;;;;19.60;11.43;;;18.70;99.90;;;;;;5011573;28;20185;-72
2022/05/10 06:34:14;;;;;;;13.60;12.20;;;18.60;99.90;;;;;;5008487;28;20791;-73
2022/05/10 06:36:41;;;;;;;12.90;11.60;;;18.80;99.90;;;;;;5011727;28;20436;-72
2022/05/10 06:39:08;;;;;;;12.20;11.00;;;18.90;99.90;;;;;;5016363;28;20427;-73
2022/05/10 06:41:34;;;;;;;11.43;10.33;;;18.90;99.90;;;;;;5011517;28;21108;-73
2022/05/10 06:44:01;;;;;;;12.47;11.17;;;19.00;99.90;;;;;;5009976;28;20518;-73
2022/05/10 06:46:29;;;;;;;12.23;11.03;;;19.00;99.90;;;;;;5023869;28;20446;-73
2022/05/10 06:48:55;;;;;;;13.83;12.43;;;18.90;99.90;;;;;;5010788;28;20434;-73
2022/05/10 06:51:23;;;;;;;12.53;11.43;;;18.90;99.90;;;;;;5011310;28;20440;-73
2022/05/10 06:53:49;;;;;;;11.93;10.73;;;18.80;99.90;;;;;;5010642;28;20439;-74
2022/05/10 06:56:15;;;;;;;12.50;11.30;;;18.90;99.90;;;;;;5014054;28;20437;-72
2022/05/10 06:58:41;;;;;;;11.97;10.87;;;18.90;99.90;;;;;;5014167;28;20442;-71
2022/05/10 07:01:11;;;;;;;14.60;11.53;;;18.90;99.90;;;;;;5017441;28;20501;-72
2022/05/10 07:03:39;;;;;;;12.30;11.00;;;18.90;99.90;;;;;;5013968;28;20466;-73
2022/05/10 07:06:08;;;;;;;12.83;11.03;;;19.10;99.90;;;;;;5014246;28;20978;-72
2022/05/10 07:08:34;;;;;;;12.57;11.27;;;19.10;99.90;;;;;;5015401;28;20426;-71
2022/05/10 07:11:00;;;;;;;12.27;11.13;;;19.10;99.90;;;;;;5015154;28;20442;-73
2022/05/10 07:13:29;;;;;;;12.60;11.40;;;19.10;99.90;;;;;;5033658;28;20446;-72
2022/05/10 07:15:55;;;;;;;13.13;10.40;;;19.10;99.90;;;;;;5011837;28;20188;-73
2022/05/10 07:18:21;;;;;;;12.70;10.27;;;19.20;99.90;;;;;;5017147;28;21249;-72
2022/05/10 07:20:48;;;;;;;11.93;10.83;;;19.30;99.90;;;;;;5014945;28;20430;-72
2022/05/10 07:23:14;;;;;;;11.80;10.70;;;19.40;99.90;;;;;;5013085;28;20205;-72
2022/05/10 07:25:40;;;;;;;11.83;10.60;;;19.50;99.90;;;;;;5015194;28;21067;-72
2022/05/10 07:28:07;;;;;;;13.43;10.97;;;19.60;99.90;;;;;;5027466;28;20450;-72
2022/05/10 07:30:34;;;;;;;11.60;10.60;;;19.60;99.90;;;;;;5014472;28;21096;-73
2022/05/10 07:33:00;;;;;;;11.43;10.43;;;19.70;99.90;;;;;;5014689;28;20451;-73
2022/05/10 07:38:16;;;;;;;10.03;9.17;;;19.60;99.90;;;;;;5007918;28;20512;-73
2022/05/10 07:40:43;;;;;;;11.40;10.40;;;19.80;99.90;;;;;;5012705;28;20439;-73
2022/05/10 07:43:10;;;;;;;11.37;10.27;;;19.90;99.90;;;;;;5028418;28;20813;-74
2022/05/10 07:45:36;;;;;;;14.00;10.70;;;19.90;99.90;;;;;;5020216;28;21380;-73
2022/05/10 07:48:03;;;;;;;13.33;10.90;;;20.10;99.90;;;;;;5013452;28;21023;-73
2022/05/10 07:50:28;;;;;;;11.87;10.50;;;20.10;99.90;;;;;;5015933;28;20518;-73
2022/05/10 07:52:54;;;;;;;14.70;10.30;;;20.10;99.90;;;;;;5017971;28;21069;-72
2022/05/10 07:55:20;;;;;;;12.83;10.03;;;20.10;99.90;;;;;;5015268;28;20217;-72
2022/05/10 07:57:45;;;;;;;10.73;9.73;;;20.10;99.90;;;;;;5016232;28;20271;-74
2022/05/10 08:00:12;;;;;;;12.23;10.57;;;20.30;99.90;;;;;;5016214;28;20196;-72
2022/05/10 08:02:43;;;;;;;11.17;9.70;;;20.30;99.90;;;;;;5018115;28;20806;-72
2022/05/10 08:05:19;;;;;;;10.90;9.80;;;20.20;99.90;;;;;;5017107;28;20459;-72
2022/05/10 08:07:45;;;;;;;11.23;10.13;;;20.20;99.90;;;;;;5012214;28;20432;-73
2022/05/10 08:10:10;;;;;;;12.83;11.63;;;20.30;99.90;;;;;;5013833;28;20443;-73
2022/05/10 08:12:37;;;;;;;15.07;10.57;;;20.30;99.90;;;;;;5015649;28;20420;-73
2022/05/10 08:15:04;;;;;;;12.30;11.10;;;20.30;99.90;;;;;;5011015;28;20545;-73
2022/05/10 08:17:33;;;;;;;13.53;11.73;;;20.40;99.90;;;;;;5025909;28;20895;-71
2022/05/10 08:19:59;;;;;;;13.03;11.07;;;20.40;99.90;;;;;;5011766;28;20439;-72
2022/05/10 08:22:24;;;;;;;11.23;10.13;;;20.50;99.90;;;;;;5012583;28;20450;-71
2022/05/10 08:24:50;;;;;;;11.40;10.30;;;20.50;99.90;;;;;;5028732;28;20212;-72
2022/05/10 08:27:16;;;;;;;11.77;10.67;;;20.40;99.90;;;;;;5011723;28;20185;-72
2022/05/10 08:29:42;;;;;;;11.23;10.03;;;20.50;99.90;;;;;;5013789;28;20562;-73
2022/05/10 08:32:08;;;;;;;10.30;9.33;;;20.60;99.90;;;;;;5017851;28;20214;-72
2022/05/10 08:34:35;;;;;;;14.40;11.00;;;20.70;99.90;;;;;;5013991;28;20204;-72
2022/05/10 08:37:04;;;;;;;12.20;11.00;;;20.70;99.90;;;;;;5013207;28;20453;-73
2022/05/10 08:39:30;;;;;;;11.60;10.40;;;20.70;99.90;;;;;;5015739;28;20443;-73
2022/05/10 08:42:00;;;;;;;9.83;8.93;;;20.80;99.90;;;;;;5011713;28;21220;-73
2022/05/10 08:44:29;;;;;;;14.53;10.13;;;21.00;99.90;;;;;;5013534;28;20831;-72
2022/05/10 08:46:58;;;;;;;9.50;8.63;;;21.10;99.90;;;;;;5013580;28;20435;-72
2022/05/10 08:49:34;;;;;;;11.10;10.00;;;21.20;99.90;;;;;;5013872;28;20434;-72
2022/05/10 08:52:00;;;;;;;12.30;9.97;;;21.20;99.90;;;;;;5012435;28;20434;-73
2022/05/10 08:54:28;;;;;;;10.73;9.57;;;21.40;99.90;;;;;;5016199;28;20447;-72
2022/05/10 08:57:02;;;;;;;10.53;9.57;;;21.50;99.90;;;;;;5014577;28;20431;-72
2022/05/10 08:59:47;;;;;;;10.40;9.40;;;21.70;99.90;;;;;;5013722;28;21441;-73
2022/05/10 09:02:27;;;;;;;10.60;9.60;;;21.60;99.90;;;;;;5025249;28;20573;-72
2022/05/10 09:05:20;;;;;;;11.20;10.10;;;21.70;99.90;;;;;;5029674;28;20462;-73
2022/05/10 09:07:57;;;;;;;15.53;9.83;;;21.90;99.90;;;;;;5015727;28;20448;-73
2022/05/10 09:10:44;;;;;;;12.73;11.43;;;21.90;99.90;;;;;;5028969;28;20467;-72
2022/05/10 09:13:14;;;;;;;12.30;9.40;;;21.80;99.90;;;;;;5016248;28;20871;-73
2022/05/10 09:15:54;;;;;;;10.47;9.47;;;21.90;99.90;;;;;;5010614;28;20474;-72
2022/05/10 09:18:24;;;;;;;10.70;9.70;;;22.10;99.90;;;;;;5012672;28;20460;-73
2022/05/10 09:21:10;;;;;;;10.50;9.60;;;22.30;99.90;;;;;;5011849;28;20430;-71
2022/05/10 09:24:13;;;;;;;10.30;9.40;;;22.50;99.90;;;;;;5023213;28;20452;-72
2022/05/10 09:26:43;;;;;;;12.17;8.67;;;22.40;99.90;;;;;;5016947;28;20477;-72
2022/05/10 09:29:27;;;;;;;9.17;8.37;;;22.60;99.90;;;;;;5016442;28;20442;-72
2022/05/10 09:34:53;;;;;;;9.60;8.77;;;22.90;99.90;;;;;;5009759;28;20470;-73
2022/05/10 09:37:33;;;;;;;9.83;8.47;;;23.00;99.90;;;;;;5028368;28;20423;-72
2022/05/10 09:40:05;;;;;;;9.50;8.30;;;23.00;99.90;;;;;;5013799;28;21049;-73
2022/05/10 09:42:33;;;;;;;8.73;7.93;;;22.90;99.90;;;;;;5009488;28;22438;-72
2022/05/10 09:45:00;;;;;;;8.43;7.73;;;23.10;99.90;;;;;;5010125;28;20470;-72
2022/05/10 09:47:26;;;;;;;9.80;8.80;;;23.20;99.90;;;;;;5015314;28;21558;-71
2022/05/10 09:49:52;;;;;;;10.40;8.10;;;23.30;99.90;;;;;;5014841;28;20481;-72
2022/05/10 09:52:23;;;;;;;8.70;7.90;;;23.40;99.90;;;;;;5007336;28;21041;-72
2022/05/10 09:54:52;;;;;;;9.00;8.17;;;23.40;99.90;;;;;;5010581;28;20207;-72
2022/05/10 09:57:33;;;;;;;8.43;7.63;;;23.50;99.90;;;;;;5011710;28;20497;-72
2022/05/10 09:59:59;;;;;;;8.87;8.10;;;23.50;99.90;;;;;;5004698;28;20453;-72
2022/05/10 10:02:26;;;;;;;8.97;8.10;;;23.50;99.90;;;;;;5015154;28;20439;-77
2022/05/10 10:04:52;;;;;;;9.13;8.23;;;23.70;99.90;;;;;;5019110;28;21213;-79
2022/05/10 10:07:17;;;;;;;9.40;8.40;;;23.80;99.90;;;;;;5035286;28;20431;-75
2022/05/10 10:09:55;;;;;;;10.30;9.30;;;23.70;99.90;;;;;;5009335;28;20205;-74
2022/05/10 10:12:36;;;;;;;8.70;7.90;;;23.70;99.90;;;;;;5012294;28;20177;-77
2022/05/10 10:15:41;;;;;;;8.67;7.97;;;23.80;99.90;;;;;;5011181;28;23357;-77
2022/05/10 10:18:11;;;;;;;10.60;9.70;;;23.90;99.90;;;;;;5010495;28;20536;-77
2022/05/10 10:20:54;;;;;;;10.60;9.50;;;24.00;99.90;;;;;;5016073;28;20795;-77
2022/05/10 10:23:19;;;;;;;8.83;8.07;;;24.00;99.90;;;;;;5014813;28;20474;-77
2022/05/10 10:25:48;;;;;;;10.70;9.60;;;24.10;99.90;;;;;;5007734;28;20463;-77
2022/05/10 10:28:31;;;;;;;8.50;7.80;;;24.20;99.90;;;;;;5011753;28;20641;-76
2022/05/10 10:31:13;;;;;;;8.77;8.00;;;24.30;99.90;;;;;;5028179;28;20449;-77
2022/05/10 10:33:45;;;;;;;8.70;8.00;;;24.20;99.90;;;;;;5013772;28;20435;-77
2022/05/10 10:36:24;;;;;;;8.63;7.93;;;24.20;99.90;;;;;;5012433;28;20438;-77
2022/05/10 10:39:18;;;;;;;9.07;8.20;;;24.30;99.90;;;;;;5010779;28;20461;-77
2022/05/10 10:41:52;;;;;;;7.93;7.23;;;24.30;99.90;;;;;;5012062;28;20416;-77
2022/05/10 10:44:22;;;;;;;9.10;8.30;;;24.50;99.90;;;;;;5014491;28;20933;-77
2022/05/10 10:46:48;;;;;;;8.07;7.20;;;24.50;99.90;;;;;;5011607;28;20427;-77
2022/05/10 10:49:19;;;;;;;8.50;7.80;;;24.60;99.90;;;;;;5016141;28;20476;-78
2022/05/10 10:51:45;;;;;;;7.60;6.90;;;24.70;99.90;;;;;;5012924;28;20295;-78
2022/05/10 10:54:20;;;;;;;10.00;9.10;;;24.70;99.90;;;;;;5010138;28;20927;-77
2022/05/10 10:56:54;;;;;;;8.13;7.43;;;24.70;99.90;;;;;;5029608;28;20481;-77
2022/05/10 10:59:23;;;;;;;8.40;7.70;;;24.80;99.90;;;;;;5016360;28;20434;-77
2022/05/10 11:02:17;;;;;;;7.83;7.07;;;24.90;99.90;;;;;;5015423;28;20420;-77
2022/05/10 11:04:55;;;;;;;10.47;7.03;;;25.00;98.60;;;;;;5010651;28;20567;-77
2022/05/10 11:07:49;;;;;;;7.60;6.90;;;25.20;98.20;;;;;;5014570;28;21084;-76
2022/05/10 11:10:46;;;;;;;9.50;7.53;;;25.20;98.30;;;;;;5014715;28;20428;-77
2022/05/10 11:13:46;;;;;;;7.80;7.20;;;25.40;97.30;;;;;;5026064;28;21005;-77
2022/05/10 11:16:26;;;;;;;7.20;6.50;;;25.50;97.50;;;;;;5014712;28;21675;-77
2022/05/10 11:19:10;;;;;;;8.20;7.30;;;25.80;97.00;;;;;;5013189;28;20527;-77
2022/05/10 11:21:53;;;;;;;8.70;7.90;;;25.90;97.40;;;;;;5012753;28;20439;-77
2022/05/10 11:24:20;;;;;;;8.30;7.50;;;26.10;95.40;;;;;;5015995;28;20475;-77
2022/05/10 11:26:51;;;;;;;7.60;6.90;;;26.00;95.60;;;;;;5036244;28;20434;-77
2022/05/10 11:29:40;;;;;;;8.33;6.70;;;26.20;94.50;;;;;;5012459;28;21314;-77
2022/05/10 11:32:29;;;;;;;6.87;6.33;;;26.30;93.70;;;;;;5015293;28;21025;-77
2022/05/10 11:35:35;;;;;;;7.63;7.03;;;26.40;93.10;;;;;;5016590;28;20449;-77
2022/05/10 11:38:20;;;;;;;8.07;6.80;;;26.40;90.20;;;;;;5006873;28;20450;-73
2022/05/10 11:41:39;;;;;;;9.43;6.60;;;26.60;89.40;;;;;;5007531;28;20452;-74
2022/05/10 11:44:12;;;;;;;7.17;6.20;;;26.50;90.50;;;;;;5002384;28;20562;-73
2022/05/10 11:47:01;;;;;;;7.00;6.40;;;26.80;89.30;;;;;;5009998;28;20447;-73
2022/05/10 11:50:01;;;;;;;7.07;6.47;;;26.90;89.50;;;;;;5009608;28;20446;-74
2022/05/10 11:53:04;;;;;;;8.43;6.67;;;27.00;88.90;;;;;;5010248;28;20446;-73
2022/05/10 11:55:58;;;;;;;6.87;6.30;;;27.20;87.70;;;;;;5011857;28;20441;-73
2022/05/10 11:58:26;;;;;;;11.27;6.40;;;27.00;84.60;;;;;;5009045;28;20503;-74
2022/05/10 12:00:54;;;;;;;7.47;6.70;;;27.20;80.30;;;;;;5010430;28;20451;-74
2022/05/10 12:03:43;;;;;;;7.20;6.50;;;27.80;81.00;;;;;;5009132;28;20519;-75
2022/05/10 12:06:23;;;;;;;7.63;6.93;;;28.40;80.10;;;;;;5010637;28;20607;-73
2022/05/10 12:08:58;;;;;;;7.33;6.73;;;29.40;76.80;;;;;;5003854;28;20540;-73
2022/05/10 12:11:32;;;;;;;7.77;7.13;;;30.10;76.00;;;;;;5004593;28;20439;-74
2022/05/10 12:22:50;;;;;;;6.57;5.97;;;32.60;61.70;;;;;;5013114;28;20449;-73
2022/05/10 12:25:54;;;;;;;5.57;5.17;;;32.40;59.70;;;;;;5009950;28;20487;-74
2022/05/10 12:28:40;;;;;;;6.73;6.13;;;31.30;58.50;;;;;;5011161;28;20518;-75
2022/05/10 12:31:32;;;;;;;6.00;5.50;;;31.20;58.50;;;;;;5024352;28;20394;-75
2022/05/10 12:34:09;;;;;;;6.37;5.87;;;30.80;59.60;;;;;;5014037;28;20863;-73
2022/05/10 12:36:38;;;;;;;6.50;6.00;;;31.20;58.40;;;;;;5013416;28;20473;-75
2022/05/10 12:39:29;;;;;;;6.80;6.20;;;31.20;56.90;;;;;;5007689;28;20438;-75
2022/05/10 12:42:19;;;;;;;6.80;5.60;;;31.30;57.70;;;;;;5011887;28;21236;-74
2022/05/10 12:45:15;;;;;;;6.47;5.33;;;30.70;57.40;;;;;;5010242;28;20439;-75
2022/05/10 12:48:05;;;;;;;6.00;5.60;;;30.80;56.80;;;;;;5009342;28;20473;-74
2022/05/10 12:50:59;;;;;;;8.17;7.43;;;30.90;57.30;;;;;;5013152;28;20432;-75
2022/05/10 12:53:28;;;;;;;6.03;5.53;;;30.60;57.70;;;;;;5013005;28;20409;-73
2022/05/10 12:56:12;;;;;;;7.70;6.13;;;31.00;56.70;;;;;;5012255;28;20399;-74
2022/05/10 12:58:43;;;;;;;6.77;5.40;;;30.50;56.20;;;;;;5017405;28;20496;-73
2022/05/10 13:01:13;;;;;;;6.57;5.73;;;30.60;55.30;;;;;;5028138;28;20436;-73
2022/05/10 13:03:46;;;;;;;5.57;5.07;;;30.70;56.40;;;;;;5012461;28;20430;-72
2022/05/10 13:06:21;;;;;;;6.90;4.40;;;30.50;55.90;;;;;;5013492;28;20944;-73
2022/05/10 13:09:10;;;;;;;7.87;5.47;;;30.30;55.60;;;;;;5013421;28;20396;-75
2022/05/10 13:11:58;;;;;;;5.83;5.40;;;30.10;56.50;;;;;;5027373;28;21320;-75
2022/05/10 13:14:30;;;;;;;6.57;5.27;;;30.30;56.90;;;;;;5028563;28;20459;-73
2022/05/10 13:16:56;;;;;;;5.83;5.37;;;30.00;55.90;;;;;;5012659;28;20423;-77
2022/05/10 13:19:24;;;;;;;6.57;5.97;;;29.90;56.30;;;;;;5014861;28;20395;-73
2022/05/10 13:21:50;;;;;;;6.50;5.53;;;29.90;56.10;;;;;;5012613;28;20243;-76